Time;durP1;ratioP1;P1;durP2;ratioP2;P2;SDS_P1;SDS_P2;PMS_P1;PMS_P2;Temp;Humidity;BMP_temperature;BMP_pressure;BME280_temperature;BME280_humidity;BME280_pressure;Samples;Min_cycle;Max_cycle;Signal;HPM_P1;HPM_P2
2021/11/12 00:02:39;;;;;;;48.97;28.25;;;;;;;13.69;59.37;102003.53;5088796;27;96006;-87
2021/11/12 00:13:24;;;;;;;52.08;28.98;;;;;;;13.81;59.00;102003.16;5076464;27;97555;-86
2021/11/12 00:15:54;;;;;;;54.25;29.70;;;;;;;13.75;59.04;102007.78;5070812;27;100824;-86
2021/11/12 00:18:23;;;;;;;54.75;28.92;;;;;;;13.81;58.52;102000.50;5076110;27;98857;-87
2021/11/12 00:20:51;;;;;;;57.88;30.15;;;;;;;13.67;59.27;101997.38;5062004;27;96746;-86
2021/11/12 00:23:19;;;;;;;53.95;29.40;;;;;;;13.87;58.30;101991.47;5073314;27;96845;-87
2021/11/12 00:25:48;;;;;;;53.05;29.25;;;;;;;13.72;58.89;101982.16;5073971;27;100521;-87
2021/11/12 00:28:17;;;;;;;58.00;30.80;;;;;;;13.74;58.67;101984.78;5079445;27;100015;-86
2021/11/12 00:30:58;;;;;;;54.78;30.10;;;;;;;13.51;59.85;101985.47;5063408;27;96814;-87
2021/11/12 00:33:40;;;;;;;51.83;27.63;;;;;;;13.57;59.87;101983.50;5073687;27;97100;-87
2021/11/12 00:36:21;;;;;;;57.83;28.63;;;;;;;13.52;59.62;101981.88;5089935;27;100199;-86
2021/11/12 00:38:51;;;;;;;55.70;30.10;;;;;;;13.72;59.26;101984.81;5068032;27;99196;-86
2021/11/12 00:41:32;;;;;;;56.55;29.50;;;;;;;13.76;59.33;101986.50;5084688;27;96632;-86
2021/11/12 00:44:06;;;;;;;61.60;30.17;;;;;;;13.85;58.94;101988.84;5077987;27;97670;-87
2021/11/12 00:46:37;;;;;;;57.55;28.98;;;;;;;13.84;59.22;101995.13;5080051;27;99310;-87
2021/11/12 00:49:08;;;;;;;54.15;28.83;;;;;;;13.79;59.28;101991.69;5081414;27;100230;-88
2021/11/12 00:51:41;;;;;;;58.63;30.08;;;;;;;13.60;59.94;101992.28;5080140;27;96853;-87
2021/11/12 00:54:09;;;;;;;57.58;29.15;;;;;;;13.70;59.47;101994.63;5078831;27;96962;-87
2021/11/12 00:56:44;;;;;;;54.70;28.50;;;;;;;13.69;59.40;101992.91;5069285;27;99220;-89
2021/11/12 00:59:12;;;;;;;57.58;29.67;;;;;;;13.65;59.16;101993.91;5082184;27;100537;-87
2021/11/12 01:01:40;;;;;;;54.65;29.27;;;;;;;13.84;58.96;101992.47;5042654;27;96752;-86
2021/11/12 01:04:09;;;;;;;60.22;30.52;;;;;;;13.77;59.53;101990.91;5053257;27;97081;-87
2021/11/12 01:06:36;;;;;;;53.92;29.02;;;;;;;13.81;59.14;101994.31;5060462;27;101396;-87
2021/11/12 01:09:05;;;;;;;57.33;30.13;;;;;;;13.68;59.50;101993.81;5041704;27;101166;-86
2021/11/12 01:11:33;;;;;;;57.45;29.25;;;;;;;13.68;60.37;101984.97;5078437;27;97333;-85
2021/11/12 01:14:03;;;;;;;62.15;30.65;;;;;;;13.94;58.83;101987.72;5080788;27;96907;-85
2021/11/12 01:16:30;;;;;;;59.90;29.85;;;;;;;13.83;58.96;101995.16;5078752;27;100954;-85
2021/11/12 01:18:57;;;;;;;56.33;28.40;;;;;;;13.88;59.50;101993.22;5079471;27;99514;-86
2021/11/12 01:21:26;;;;;;;56.03;30.50;;;;;;;13.75;59.72;101997.16;5079020;27;97827;-87
2021/11/12 01:23:55;;;;;;;56.20;27.10;;;;;;;13.76;59.61;101997.13;5080305;27;96683;-85
2021/11/12 01:26:24;;;;;;;56.35;29.23;;;;;;;13.67;59.53;101999.16;5074613;27;97117;-86
2021/11/12 01:28:53;;;;;;;59.63;29.17;;;;;;;13.82;59.39;101994.28;5079239;27;99235;-86
2021/11/12 01:31:26;;;;;;;53.03;28.05;;;;;;;13.85;59.39;101982.66;5074308;27;96751;-86
2021/11/12 01:33:53;;;;;;;50.30;27.27;;;;;;;13.84;59.21;101989.81;5064866;27;96810;-87
2021/11/12 01:36:32;;;;;;;58.13;27.98;;;;;;;13.70;59.52;101989.31;5084165;27;100908;-87
2021/11/12 01:39:03;;;;;;;57.70;28.83;;;;;;;13.86;59.75;101984.41;5033518;27;98702;-88
2021/11/12 01:41:32;;;;;;;58.22;29.67;;;;;;;13.91;59.31;101988.69;5055876;27;96945;-86
2021/11/12 01:44:03;;;;;;;53.67;26.73;;;;;;;13.79;59.24;101983.72;5083693;27;96741;-85
2021/11/12 01:49:22;;;;;;;53.80;27.55;;;;;;;13.89;59.33;101985.22;5069247;27;99821;-86
2021/11/12 01:52:08;;;;;;;51.25;26.23;;;;;;;13.89;59.17;101976.38;5063285;27;97049;-86
2021/11/12 01:57:25;;;;;;;55.55;26.27;;;;;;;13.85;59.42;101967.59;5079175;27;97364;-86
2021/11/12 01:59:54;;;;;;;51.50;25.83;;;;;;;13.93;59.02;101968.25;5083912;27;101334;-88
2021/11/12 02:02:24;;;;;;;57.08;28.17;;;;;;;13.94;59.06;101962.03;5084499;27;96635;-88
2021/11/12 02:04:51;;;;;;;54.58;27.40;;;;;;;13.94;59.02;101969.13;5084864;27;97024;-88
2021/11/12 02:07:18;;;;;;;52.45;27.42;;;;;;;13.82;59.71;101967.72;5078274;27;99314;-88
2021/11/12 02:09:47;;;;;;;53.78;26.50;;;;;;;13.84;59.74;101965.88;5085826;27;100037;-87
2021/11/12 02:12:21;;;;;;;55.35;27.95;;;;;;;13.80;59.49;101972.19;5086320;27;96820;-87
2021/11/12 02:14:52;;;;;;;57.50;28.25;;;;;;;14.01;59.31;101968.03;5084532;27;96763;-87
2021/11/12 02:17:29;;;;;;;57.30;26.67;;;;;;;13.79;59.70;101962.47;5080645;27;99668;-86
2021/11/12 02:20:01;;;;;;;51.80;26.55;;;;;;;13.91;59.41;101962.09;5090059;27;98735;-87
2021/11/12 02:22:33;;;;;;;52.65;26.98;;;;;;;13.89;58.88;101961.31;5085708;27;96588;-88
2021/11/12 02:25:05;;;;;;;45.42;24.02;;;;;;;13.86;59.38;101958.72;5079182;27;96716;-85
2021/11/12 02:27:38;;;;;;;47.10;23.50;;;;;;;13.88;59.21;101956.91;5094777;27;98221;-87
2021/11/12 02:30:07;;;;;;;44.63;23.90;;;;;;;13.85;58.97;101962.28;5095433;27;97849;-87
2021/11/12 02:32:34;;;;;;;47.05;23.83;;;;;;;13.85;59.38;101959.63;5086800;27;96661;-87
2021/11/12 02:35:02;;;;;;;44.28;22.60;;;;;;;13.91;59.25;101961.25;5073210;27;96919;-88
2021/11/12 02:37:34;;;;;;;39.15;22.15;;;;;;;13.80;59.25;101958.91;5095452;27;98110;-86
2021/11/12 02:40:04;;;;;;;44.00;24.05;;;;;;;13.82;59.05;101956.22;5093365;27;99466;-86
2021/11/12 02:42:31;;;;;;;45.45;24.70;;;;;;;13.88;59.35;101956.03;5083246;27;96246;-86
2021/11/12 02:45:00;;;;;;;48.72;23.67;;;;;;;13.94;59.37;101953.19;5094869;27;96521;-86
2021/11/12 02:47:27;;;;;;;44.50;23.20;;;;;;;13.94;59.25;101951.41;5100355;27;99627;-87
2021/11/12 02:50:13;;;;;;;43.65;23.75;;;;;;;13.98;58.70;101941.53;5083486;27;96881;-87
2021/11/12 02:52:42;;;;;;;54.63;26.53;;;;;;;13.95;58.92;101957.59;5083860;27;96592;-86
2021/11/12 02:55:11;;;;;;;51.90;26.48;;;;;;;14.05;58.82;101952.84;5090779;27;96614;-86
2021/11/12 02:57:39;;;;;;;53.70;25.75;;;;;;;13.88;59.42;101956.91;5099008;27;97689;-87
2021/11/12 03:00:07;;;;;;;51.20;24.88;;;;;;;14.05;58.90;101971.44;5097132;27;96813;-86
2021/11/12 03:02:35;;;;;;;49.85;24.95;;;;;;;13.95;59.46;101963.78;5092288;27;95908;-86
2021/11/12 03:05:03;;;;;;;49.25;24.75;;;;;;;13.81;59.29;101963.31;5102314;27;97045;-87
2021/11/12 03:07:30;;;;;;;47.00;22.70;;;;;;;13.91;58.91;101969.25;5103413;27;100053;-85
2021/11/12 03:10:00;;;;;;;40.65;21.90;;;;;;;13.56;59.05;101965.81;5085554;27;98131;-87
2021/11/12 03:12:28;;;;;;;42.30;22.55;;;;;;;13.78;59.42;101960.75;5079070;27;96576;-86
2021/11/12 03:15:00;;;;;;;41.97;21.88;;;;;;;13.70;59.58;101961.88;5085790;27;97688;-85
2021/11/12 03:17:27;;;;;;;46.78;24.08;;;;;;;13.89;59.39;101958.66;5103332;27;98076;-85
2021/11/12 03:19:55;;;;;;;44.50;23.05;;;;;;;13.83;59.21;101952.66;5100762;27;99560;-86
2021/11/12 03:22:24;;;;;;;44.78;23.13;;;;;;;13.95;59.08;101952.28;5064364;27;96688;-87
2021/11/12 03:24:54;;;;;;;44.42;22.88;;;;;;;13.95;58.87;101950.50;5089482;27;96807;-86
2021/11/12 03:27:26;;;;;;;47.88;23.63;;;;;;;14.14;58.34;101947.25;5098969;27;99478;-86
2021/11/12 03:30:15;;;;;;;49.05;23.60;;;;;;;14.06;58.24;101951.94;5088620;27;99372;-87
2021/11/12 04:00:27;;;;;;;49.33;25.67;;;;;;;14.01;59.01;101941.44;5087080;27;98894;-85
2021/11/12 04:03:01;;;;;;;48.85;24.13;;;;;;;14.00;58.85;101938.84;5085308;27;98159;-85
2021/11/12 04:30:52;;;;;;;51.97;25.30;;;;;;;14.02;58.82;101921.06;5081644;27;96741;-88
2021/11/12 05:02:44;;;;;;;48.67;23.92;;;;;;;14.18;58.21;101923.19;5082137;27;97737;-89
2021/11/12 05:09:52;;;;;;;48.45;23.73;;;;;;;14.12;58.36;101930.47;5100429;27;96603;-87
2021/11/12 05:34:38;;;;;;;59.60;26.55;;;;;;;13.99;59.08;101927.34;5075492;27;96783;-87
2021/11/12 05:45:30;;;;;;;66.45;27.95;;;;;;;14.07;58.81;101913.81;5079046;27;96810;-85
2021/11/12 05:50:56;;;;;;;62.83;26.88;;;;;;;14.06;59.16;101922.69;5080902;27;97131;-88
2021/11/12 05:56:09;;;;;;;64.35;28.58;;;;;;;14.07;58.98;101925.31;5082166;27;97389;-87
2021/11/12 05:58:38;;;;;;;69.45;28.17;;;;;;;14.02;58.80;101924.59;5061787;27;97386;-87
2021/11/12 06:01:05;;;;;;;69.30;28.15;;;;;;;14.11;58.85;101920.78;5062149;27;98613;-88
2021/11/12 06:03:33;;;;;;;81.78;29.83;;;;;;;13.95;58.85;101926.56;5082358;27;99207;-88
2021/11/12 06:06:02;;;;;;;76.18;29.58;;;;;;;13.98;59.00;101919.44;5073026;27;96869;-88
2021/11/12 06:08:29;;;;;;;80.05;29.90;;;;;;;13.90;59.48;101917.88;5053597;27;98240;-88
2021/11/12 06:10:56;;;;;;;82.43;29.35;;;;;;;13.84;59.66;101917.19;5076518;27;100391;-88
2021/11/12 06:13:25;;;;;;;81.32;29.95;;;;;;;13.85;59.31;101922.44;5083468;27;99722;-87
2021/11/12 06:15:52;;;;;;;88.18;29.20;;;;;;;13.95;59.30;101925.69;5083120;27;97008;-87
2021/11/12 06:18:19;;;;;;;83.13;30.02;;;;;;;13.98;58.79;101922.94;5076651;27;96898;-84
2021/11/12 06:20:46;;;;;;;85.85;30.80;;;;;;;13.85;59.16;101925.09;5070196;27;98950;-87
2021/11/12 06:23:16;;;;;;;84.63;31.02;;;;;;;13.83;59.13;101926.94;5063049;27;98838;-89
2021/11/12 06:25:43;;;;;;;85.10;30.52;;;;;;;13.86;59.28;101926.84;5086516;27;96872;-87
2021/11/12 06:28:10;;;;;;;87.15;31.42;;;;;;;13.68;59.38;101937.16;5068599;27;96835;-89
2021/11/12 06:31:00;;;;;;;92.20;32.25;;;;;;;13.78;59.35;101938.63;5087598;27;98206;-88
2021/11/12 06:33:29;;;;;;;84.68;29.17;;;;;;;13.76;59.81;101929.84;5079534;27;96760;-86
2021/11/12 06:35:59;;;;;;;88.20;31.25;;;;;;;13.83;59.50;101928.72;5088309;27;96685;-85
2021/11/12 06:38:30;;;;;;;90.68;31.98;;;;;;;13.80;59.41;101928.81;5094511;27;96643;-89
2021/11/12 06:41:06;;;;;;;99.45;33.60;;;;;;;13.72;59.58;101933.50;5098564;27;96944;-89
2021/11/12 06:43:39;;;;;;;89.13;33.13;;;;;;;13.91;59.18;101932.88;5093102;27;98520;-87
2021/11/12 06:51:44;;;;;;;87.18;32.10;;;;;;;13.55;59.46;101926.03;5072090;27;96854;-91
2021/11/12 06:54:12;;;;;;;89.40;33.28;;;;;;;13.63;59.81;101934.63;5088702;27;99445;-90
2021/11/12 06:56:43;;;;;;;86.38;31.58;;;;;;;13.70;58.92;101938.00;5074433;27;96611;-89
2021/11/12 06:59:13;;;;;;;85.55;32.50;;;;;;;13.75;59.24;101928.97;5097121;27;96929;-90
2021/11/12 07:02:02;;;;;;;94.13;34.97;;;;;;;13.70;59.55;101927.38;5100132;27;99348;-90
2021/11/12 07:04:30;;;;;;;94.13;34.63;;;;;;;13.69;59.29;101926.50;5090976;27;98932;-88
2021/11/12 07:06:59;;;;;;;87.25;31.27;;;;;;;13.62;59.33;101922.28;5098398;27;96526;-89
2021/11/12 07:09:26;;;;;;;91.68;31.55;;;;;;;13.34;59.91;101927.50;5103935;27;95955;-83
2021/11/12 07:11:53;;;;;;;82.05;30.42;;;;;;;13.12;60.86;101924.59;5099868;27;99736;-87
2021/11/12 07:14:20;;;;;;;80.25;30.15;;;;;;;13.42;60.55;101924.63;5093313;27;99736;-87
2021/11/12 07:16:47;;;;;;;75.50;29.73;;;;;;;13.60;59.56;101923.22;5103682;27;96547;-85
2021/11/12 07:19:15;;;;;;;75.57;29.98;;;;;;;13.60;59.17;101934.72;5060324;22;97086;-89
2021/11/12 07:21:42;;;;;;;75.50;29.83;;;;;;;13.55;59.76;101926.91;5044462;28;99273;-90
2021/11/12 07:24:11;;;;;;;72.95;29.05;;;;;;;13.75;58.92;101933.41;5045889;27;100132;-90
2021/11/12 07:26:38;;;;;;;74.18;28.73;;;;;;;13.87;58.57;101922.41;5046044;28;96584;-91
2021/11/12 07:29:05;;;;;;;69.82;28.10;;;;;;;13.82;58.02;101930.53;5043377;28;97338;-91
2021/11/12 07:31:32;;;;;;;69.75;26.85;;;;;;;14.05;58.04;101928.94;5029882;27;101437;-90
2021/11/12 07:34:00;;;;;;;68.95;28.95;;;;;;;13.96;58.42;101930.97;5042302;27;99983;-89
2021/11/12 07:36:37;;;;;;;74.60;29.55;;;;;;;13.92;57.31;101931.97;5033942;27;96639;-89
2021/11/12 07:39:14;;;;;;;68.60;28.38;;;;;;;13.83;58.06;101936.72;5038979;28;96898;-90
2021/11/12 07:45:09;;;;;;;81.07;30.67;;;;;;;13.75;58.67;101928.97;5010629;28;96787;-91
2021/11/12 07:47:37;;;;;;;87.70;33.15;;;;;;;13.81;58.65;101927.91;5002690;28;96761;-89
2021/11/12 07:50:21;;;;;;;79.85;31.63;;;;;;;13.89;58.07;101924.09;4991258;28;96998;-90
2021/11/12 07:52:52;;;;;;;85.07;32.80;;;;;;;13.72;58.69;101917.56;5005148;28;99479;-93
2021/11/12 07:55:22;;;;;;;78.75;32.88;;;;;;;13.74;58.02;101924.56;5006825;28;96466;-91
2021/11/12 07:57:55;;;;;;;84.60;32.85;;;;;;;13.71;58.20;101922.00;4994730;28;96826;-91
2021/11/12 08:00:24;;;;;;;83.00;34.38;;;;;;;13.78;58.22;101923.56;5006299;28;99403;-89
2021/11/12 08:05:41;;;;;;;84.72;33.53;;;;;;;14.08;57.91;101920.88;5013025;28;96566;-90
2021/11/12 08:08:20;;;;;;;82.57;33.10;;;;;;;14.08;57.73;101918.22;5015341;28;96816;-89
2021/11/12 08:13:46;;;;;;;83.57;33.28;;;;;;;13.96;58.00;101920.34;5000996;28;96910;-88
2021/11/12 08:19:04;;;;;;;79.65;33.67;;;;;;;13.93;57.94;101885.88;5012721;28;97008;-89
2021/11/12 08:21:37;;;;;;;75.28;31.95;;;;;;;14.05;57.30;101878.44;5012686;28;99900;-87
2021/11/12 08:24:09;;;;;;;71.43;31.92;;;;;;;13.79;58.01;101884.56;5010082;28;99095;-88
2021/11/12 08:26:44;;;;;;;76.15;33.78;;;;;;;13.91;57.66;101882.41;5013782;28;96778;-87
2021/11/12 08:37:31;;;;;;;70.07;29.20;;;;;;;13.53;57.85;101886.22;4982637;28;96950;-85
2021/11/12 08:43:44;;;;;;;67.43;31.23;;;;;;;13.91;57.16;101889.53;4968732;28;96983;-85
2021/11/12 08:46:26;;;;;;;79.55;33.35;;;;;;;14.10;56.98;101884.50;5004686;28;99379;-84
2021/11/12 08:49:00;;;;;;;70.97;32.90;;;;;;;14.09;56.37;101885.41;4993161;28;97134;-81
2021/11/12 08:51:33;;;;;;;79.30;32.35;;;;;;;14.13;56.59;101887.03;4984333;28;96958;-81
2021/11/12 08:54:00;;;;;;;84.60;34.88;;;;;;;13.84;57.40;101880.00;4995215;28;100361;-80
2021/11/12 08:56:27;;;;;;;85.40;34.78;;;;;;;14.29;56.44;101875.88;4981447;28;98713;-81
2021/11/12 08:58:53;;;;;;;77.65;35.03;;;;;;;14.22;56.28;101881.44;4981104;28;96847;-81
2021/11/12 09:01:22;;;;;;;74.75;32.38;;;;;;;14.41;56.11;101874.63;4984799;28;96706;-81
2021/11/12 09:03:50;;;;;;;82.78;33.25;;;;;;;14.54;55.72;101873.28;4971521;28;99520;-81
2021/11/12 09:06:17;;;;;;;75.93;31.65;;;;;;;14.48;55.97;101872.63;4974911;28;99196;-81
2021/11/12 09:08:44;;;;;;;73.63;31.42;;;;;;;14.57;55.21;101873.16;4976024;28;97909;-81
2021/11/12 09:11:12;;;;;;;70.18;30.38;;;;;;;14.54;55.28;101867.97;4978656;28;96808;-82
2021/11/12 09:13:44;;;;;;;74.97;31.05;;;;;;;14.58;54.56;101866.06;4978751;28;99260;-82
2021/11/12 09:16:13;;;;;;;71.20;28.70;;;;;;;14.46;55.87;101863.81;4992901;28;99884;-81
2021/11/12 09:18:40;;;;;;;69.57;28.45;;;;;;;14.47;55.62;101854.91;4977564;28;96795;-81
2021/11/12 09:21:07;;;;;;;71.35;27.38;;;;;;;14.54;56.06;101852.00;4987861;28;97009;-81
2021/11/12 09:23:35;;;;;;;72.10;31.50;;;;;;;14.47;55.82;101853.13;4977637;28;98204;-80
2021/11/12 09:26:05;;;;;;;72.60;31.55;;;;;;;14.77;55.57;101854.72;4978141;28;97850;-81
2021/11/12 09:28:33;;;;;;;75.20;31.63;;;;;;;14.67;55.37;101850.66;4978822;28;97049;-81
2021/11/12 09:31:00;;;;;;;72.10;30.35;;;;;;;14.67;55.25;101855.09;4977749;28;96911;-81
2021/11/12 09:33:27;;;;;;;66.80;29.90;;;;;;;14.66;55.32;101856.03;4974174;28;99946;-80
2021/11/12 09:35:54;;;;;;;69.10;29.48;;;;;;;14.84;54.79;101838.53;4973275;28;99278;-80
2021/11/12 09:38:20;;;;;;;66.65;29.73;;;;;;;14.67;55.43;101847.13;4979035;28;96740;-81
2021/11/12 09:40:48;;;;;;;62.50;27.63;;;;;;;15.01;54.78;101845.00;4991559;28;97103;-82
2021/11/12 09:43:15;;;;;;;56.60;26.85;;;;;;;14.94;54.84;101840.81;4973641;28;99246;-81
2021/11/12 09:45:42;;;;;;;53.15;26.25;;;;;;;15.09;53.97;101837.63;4966194;28;98111;-81
2021/11/12 09:48:09;;;;;;;54.00;25.05;;;;;;;14.94;54.61;101839.97;4984697;28;96666;-81
2021/11/12 09:50:36;;;;;;;51.85;24.20;;;;;;;14.86;54.67;101837.56;4973441;28;97043;-82
2021/11/12 09:53:04;;;;;;;46.10;22.05;;;;;;;14.95;54.41;101836.38;4977599;28;98344;-81
2021/11/12 09:55:31;;;;;;;47.75;22.50;;;;;;;15.02;54.50;101836.09;4974004;28;98088;-81
2021/11/12 09:58:00;;;;;;;42.47;21.10;;;;;;;14.80;54.26;101829.81;4977745;28;96706;-80
2021/11/12 10:00:27;;;;;;;42.65;20.65;;;;;;;14.51;55.13;101835.28;4979405;28;97691;-81
2021/11/12 10:02:57;;;;;;;44.47;22.35;;;;;;;14.57;55.65;101824.44;4980433;28;97201;-81
2021/11/12 10:05:33;;;;;;;40.35;20.67;;;;;;;14.60;55.31;101825.19;4990656;28;98056;-81
2021/11/12 10:08:01;;;;;;;48.25;23.63;;;;;;;14.43;55.87;101824.91;4992032;28;96654;-81
2021/11/12 10:10:27;;;;;;;47.03;23.50;;;;;;;14.51;55.68;101825.50;4993604;28;97337;-81
2021/11/12 10:12:55;;;;;;;44.78;22.00;;;;;;;14.71;54.74;101827.47;4982495;28;97106;-81
2021/11/12 10:15:28;;;;;;;45.90;22.63;;;;;;;14.64;55.25;101817.97;4978381;28;98864;-80
2021/11/12 10:18:05;;;;;;;41.33;22.58;;;;;;;14.77;54.95;101810.44;4979703;28;98129;-81
2021/11/12 10:20:32;;;;;;;40.28;21.35;;;;;;;14.87;54.74;101810.03;4965277;28;97186;-81
2021/11/12 10:22:59;;;;;;;35.72;19.77;;;;;;;14.58;54.95;101803.09;4979516;28;101758;-82
2021/11/12 10:25:27;;;;;;;33.72;19.15;;;;;;;14.85;54.99;101803.03;4961211;28;98507;-80
2021/11/12 10:27:53;;;;;;;33.92;18.30;;;;;;;14.94;54.15;101792.06;4970479;28;97377;-80
2021/11/12 10:30:23;;;;;;;32.28;18.15;;;;;;;14.91;54.73;101786.81;4983183;28;96812;-80
2021/11/12 10:32:55;;;;;;;31.45;18.80;;;;;;;14.74;54.66;101784.81;4979071;28;97743;-81
2021/11/12 10:35:23;;;;;;;30.17;17.33;;;;;;;14.72;55.18;101776.00;4970185;28;99287;-82
2021/11/12 10:37:50;;;;;;;28.10;16.33;;;;;;;14.70;54.47;101775.22;4973086;28;96920;-81
2021/11/12 10:40:20;;;;;;;28.63;16.15;;;;;;;14.84;54.91;101767.56;4971009;28;96801;-82
2021/11/12 10:42:48;;;;;;;28.05;16.25;;;;;;;15.01;54.69;101769.63;4973432;28;99198;-81
2021/11/12 10:45:18;;;;;;;29.30;17.27;;;;;;;14.83;54.68;101763.19;4979023;28;101856;-80
2021/11/12 10:47:50;;;;;;;29.00;16.95;;;;;;;14.94;53.52;101763.66;4976474;28;97013;-81
2021/11/12 10:50:19;;;;;;;29.20;17.10;;;;;;;15.06;53.87;101751.66;4979663;28;96860;-81
2021/11/12 10:52:47;;;;;;;27.23;15.63;;;;;;;14.39;53.85;101755.91;4978689;28;98877;-81
2021/11/12 10:55:17;;;;;;;28.27;16.00;;;;;;;14.39;55.59;101761.25;4977600;28;98872;-80
2021/11/12 10:57:50;;;;;;;27.08;16.55;;;;;;;14.53;54.88;101767.81;4964050;28;97183;-81
2021/11/12 11:00:20;;;;;;;30.20;16.52;;;;;;;14.62;53.50;101761.31;4976600;28;96944;-80
2021/11/12 11:02:50;;;;;;;37.38;18.65;;;;;;;14.41;54.81;101757.63;4975111;28;98248;-81
2021/11/12 11:05:21;;;;;;;31.33;17.05;;;;;;;13.86;55.90;101754.16;4970559;28;97724;-80
2021/11/12 11:07:53;;;;;;;26.50;16.88;;;;;;;14.39;55.19;101751.47;4976657;28;96876;-81
2021/11/12 11:10:23;;;;;;;28.52;17.02;;;;;;;14.34;54.82;101746.31;4959618;28;96860;-80
2021/11/12 11:12:51;;;;;;;32.03;15.82;;;;;;;14.61;54.56;101741.81;4970230;28;99356;-80
2021/11/12 11:15:22;;;;;;;24.95;14.75;;;;;;;14.72;53.74;101728.97;4951629;28;99570;-81
2021/11/12 11:18:03;;;;;;;26.55;13.77;;;;;;;14.45;54.12;101729.13;4973669;28;96721;-81
2021/11/12 11:20:31;;;;;;;21.38;13.50;;;;;;;14.26;54.22;101731.53;4961697;28;97034;-81
2021/11/12 11:23:00;;;;;;;22.67;13.43;;;;;;;14.40;54.83;101721.31;4972408;28;98652;-80
2021/11/12 11:25:29;;;;;;;23.77;14.48;;;;;;;14.20;54.38;101727.28;4975105;28;99936;-81
2021/11/12 11:27:57;;;;;;;21.30;14.18;;;;;;;14.55;53.96;101726.09;4969539;28;97166;-81
2021/11/12 11:30:24;;;;;;;25.90;15.35;;;;;;;14.41;54.16;101725.72;4961342;28;96823;-81
2021/11/12 11:32:52;;;;;;;25.20;15.52;;;;;;;14.65;53.81;101721.28;4966211;28;99009;-82
2021/11/12 11:35:20;;;;;;;26.92;15.77;;;;;;;14.97;52.62;101712.94;4964979;28;97767;-81
2021/11/12 11:37:52;;;;;;;27.02;15.60;;;;;;;14.84;53.13;101722.31;4965508;28;97305;-81
2021/11/12 11:40:19;;;;;;;26.75;15.18;;;;;;;14.91;52.75;101713.19;4974841;28;96848;-82
2021/11/12 11:42:47;;;;;;;24.60;15.40;;;;;;;14.77;53.17;101719.03;4966545;28;98923;-80
2021/11/12 11:45:15;;;;;;;22.48;14.48;;;;;;;15.15;52.18;101698.09;4961166;28;100687;-82
2021/11/12 11:47:44;;;;;;;24.27;15.27;;;;;;;15.10;52.41;101692.91;4973294;28;97014;-82
2021/11/12 11:50:32;;;;;;;21.80;13.95;;;;;;;15.32;51.82;101684.09;4976207;28;97366;-81
2021/11/12 11:53:29;;;;;;;24.38;15.10;;;;;;;15.37;51.64;101682.09;4964696;28;99240;-81
2021/11/12 11:56:13;;;;;;;23.38;14.98;;;;;;;15.41;52.10;101687.25;4964041;28;99681;-81
2021/11/12 11:58:43;;;;;;;26.58;16.30;;;;;;;15.71;50.88;101686.94;4970624;28;96821;-82
2021/11/12 12:01:33;;;;;;;23.20;14.98;;;;;;;15.56;51.27;101676.94;4973056;28;97068;-82
2021/11/12 12:04:31;;;;;;;24.10;14.63;;;;;;;15.79;50.76;101672.38;4970854;28;101980;-81
2021/11/12 12:07:20;;;;;;;24.38;15.00;;;;;;;15.81;50.45;101680.31;4971741;28;99167;-82
2021/11/12 12:09:50;;;;;;;23.98;14.55;;;;;;;15.83;50.28;101670.44;4974566;28;97240;-82
2021/11/12 12:12:39;;;;;;;24.83;15.35;;;;;;;15.91;49.97;101665.66;4966723;28;97345;-81
2021/11/12 12:15:49;;;;;;;25.80;16.20;;;;;;;15.75;50.65;101652.09;4975615;28;101165;-81
2021/11/12 12:18:25;;;;;;;26.67;15.55;;;;;;;15.56;51.22;101647.63;4976773;28;100035;-80
2021/11/12 12:21:53;;;;;;;24.98;15.68;;;;;;;15.54;50.93;101651.22;4960612;28;97589;-81
2021/11/12 12:43:07;;;;;;;21.88;13.68;;;;;;;14.49;53.08;101632.34;4978469;28;96957;-88
2021/11/12 13:22:56;;;;;;;20.55;12.30;;;;;;;14.61;52.41;101571.59;4976799;28;96684;-89
2021/11/12 13:25:27;;;;;;;17.55;10.25;;;;;;;14.63;52.29;101579.50;5004660;28;97615;-87
2021/11/12 13:28:29;;;;;;;14.48;9.05;;;;;;;14.16;52.98;101582.16;4983809;28;98214;-86
2021/11/12 13:31:29;;;;;;;17.77;9.13;;;;;;;14.46;52.90;101568.66;4992988;28;96799;-88
2021/11/12 13:36:46;;;;;;;15.00;8.15;;;;;;;14.04;53.63;101561.34;4988318;28;99083;-88
2021/11/12 13:39:18;;;;;;;13.07;8.52;;;;;;;14.22;53.21;101567.75;5006724;28;98437;-86
2021/11/12 13:41:48;;;;;;;10.88;6.93;;;;;;;14.12;53.31;101569.00;5000503;28;96314;-87
2021/11/12 13:44:18;;;;;;;11.75;7.20;;;;;;;14.04;53.19;101558.69;4983793;28;96525;-90
2021/11/12 13:46:51;;;;;;;10.40;7.03;;;;;;;13.67;53.49;101568.88;5001357;22;98178;-87
2021/11/12 13:49:34;;;;;;;12.35;7.25;;;;;;;13.83;53.53;101560.34;4918111;28;97075;-88
2021/11/12 13:52:08;;;;;;;11.40;6.85;;;;;;;13.82;53.38;101561.25;4913943;28;96722;-89
2021/11/12 13:55:05;;;;;;;13.65;7.78;;;;;;;13.68;54.47;101555.56;4917100;28;96571;-89
2021/11/12 13:57:45;;;;;;;11.38;7.65;;;;;;;13.63;54.21;101557.53;4920794;28;99490;-88
2021/11/12 14:00:19;;;;;;;14.38;8.05;;;;;;;13.94;54.49;101552.84;4924090;28;99248;-88
2021/11/12 14:02:54;;;;;;;12.98;7.20;;;;;;;14.17;53.82;101549.34;4914210;28;96695;-89
2021/11/12 14:05:35;;;;;;;11.50;8.07;;;;;;;14.34;52.78;101551.34;4918428;28;96071;-86
2021/11/12 14:08:05;;;;;;;16.25;9.15;;;;;;;14.48;52.61;101546.41;4921062;28;97933;-88
2021/11/12 14:10:36;;;;;;;13.98;7.97;;;;;;;14.13;52.54;101552.16;4910971;28;98025;-86
2021/11/12 14:13:07;;;;;;;12.35;8.30;;;;;;;14.22;53.40;101546.50;4906309;28;96897;-87
2021/11/12 14:33:50;;;;;;;16.20;9.68;;;;;;;13.97;52.51;101546.56;4952957;28;96803;-88
2021/11/12 14:36:32;;;;;;;15.23;9.13;;;;;;;13.88;52.44;101542.44;4954240;28;96832;-89
2021/11/12 14:45:24;;;;;;;15.95;9.27;;;;;;;13.98;51.32;101541.16;4959563;28;96042;-88
2021/11/12 14:48:01;;;;;;;15.65;9.55;;;;;;;13.83;51.82;101533.78;4942698;28;96105;-88
2021/11/12 14:53:26;;;;;;;18.48;10.05;;;;;;;13.46;52.24;101533.31;4945195;28;97961;-87
2021/11/12 14:56:01;;;;;;;16.83;9.70;;;;;;;13.77;51.89;101527.81;4954672;28;96525;-87
2021/11/12 14:58:30;;;;;;;17.98;10.93;;;;;;;13.64;51.93;101524.72;4952444;28;96689;-88
2021/11/12 15:01:16;;;;;;;19.80;10.82;;;;;;;13.85;51.40;101510.66;4948670;28;99342;-90
2021/11/12 15:03:48;;;;;;;23.05;12.10;;;;;;;13.77;51.56;101517.19;4952272;28;96751;-83
2021/11/12 15:09:03;;;;;;;22.13;11.50;;;;;;;14.03;50.94;101516.22;5052216;22;99854;-82
2021/11/12 15:11:35;;;;;;;20.15;11.48;;;;;;;13.93;51.54;101513.03;4913814;28;98593;-90
2021/11/12 15:14:06;;;;;;;19.77;11.65;;;;;;;13.90;51.18;101516.69;4898125;28;96735;-90
2021/11/12 15:16:42;;;;;;;23.15;11.20;;;;;;;13.93;51.24;101497.09;4909655;28;97392;-91
2021/11/12 15:19:13;;;;;;;19.35;11.13;;;;;;;13.78;51.51;101503.84;4923057;28;96455;-85
2021/11/12 15:21:46;;;;;;;19.95;11.77;;;;;;;13.55;51.95;101493.19;4922611;28;102100;-90
2021/11/12 15:48:45;;;;;;;24.70;13.50;;;;;;;13.17;53.94;101510.47;5027855;27;2234143;-87
2021/11/12 15:54:11;;;;;;;24.10;13.63;;;;;;;13.56;52.45;101505.53;5080682;27;97465;-87
2021/11/12 16:18:17;;;;;;;23.52;12.88;;;;;;;14.14;50.70;101480.34;6134570;22;95941;-89
2021/11/12 16:26:30;;;;;;;23.45;13.02;;;;;;;13.86;51.38;101469.88;6097003;22;97472;-88
2021/11/12 16:31:50;;;;;;;24.00;12.80;;;;;;;13.95;51.25;101472.22;6160963;22;96178;-87
2021/11/12 16:34:25;;;;;;;25.10;13.55;;;;;;;13.62;52.51;101473.44;6158757;22;99004;-87
2021/11/12 16:37:00;;;;;;;25.88;12.80;;;;;;;13.37;53.23;101477.91;6134652;22;98960;-86
2021/11/12 16:42:15;;;;;;;24.80;13.70;;;;;;;13.66;52.90;101467.09;6118159;22;99089;-87
2021/11/12 16:50:54;;;;;;;25.95;13.85;;;;;;;13.79;52.59;101455.09;6032743;23;96393;-86
2021/11/12 16:53:30;;;;;;;27.77;13.25;;;;;;;13.99;51.98;101454.34;6101759;23;96329;-84